createdAt,value
2016-11-26T00:00:07.597Z,0
2016-11-26T00:00:39.892Z,0
2016-11-26T00:01:12.195Z,0
2016-11-26T00:01:44.747Z,0
2016-11-26T00:02:17.061Z,0
2016-11-26T00:02:49.380Z,0
2016-11-26T00:03:21.687Z,0
2016-11-26T00:03:54.042Z,0
2016-11-26T00:04:26.380Z,0
2016-11-26T00:04:58.688Z,0
2016-11-26T00:05:30.994Z,0
2016-11-26T00:06:03.308Z,0
2016-11-26T00:06:35.619Z,0
2016-11-26T00:07:07.940Z,0
2016-11-26T00:07:40.246Z,0
2016-11-26T00:08:12.551Z,0
2016-11-26T00:08:44.856Z,0
2016-11-26T00:09:17.175Z,0
2016-11-26T00:09:49.528Z,0
2016-11-26T00:10:21.838Z,0
2016-11-26T00:10:54.168Z,0
2016-11-26T00:11:26.470Z,0
2016-11-26T00:11:58.794Z,0
2016-11-26T00:12:31.099Z,0
2016-11-26T00:13:03.417Z,0
2016-11-26T00:13:35.718Z,0
2016-11-26T00:14:08.037Z,0
2016-11-26T00:14:40.352Z,0
2016-11-26T00:15:12.664Z,0
2016-11-26T00:15:44.990Z,0
2016-11-26T00:16:17.308Z,0
2016-11-26T00:16:49.654Z,0
2016-11-26T00:17:21.974Z,0
2016-11-26T00:17:54.305Z,0
2016-11-26T00:18:26.620Z,0
2016-11-26T00:18:58.924Z,0
2016-11-26T00:19:31.219Z,0
2016-11-26T00:20:03.532Z,0
2016-11-26T00:20:35.842Z,0
2016-11-26T00:21:08.180Z,0
2016-11-26T00:21:40.520Z,0
2016-11-26T00:22:13.442Z,0
2016-11-26T00:22:45.760Z,0
2016-11-26T00:23:18.080Z,0
2016-11-26T00:23:50.417Z,0
2016-11-26T00:24:22.763Z,0
2016-11-26T00:24:55.097Z,0
2016-11-26T00:25:27.414Z,0
2016-11-26T00:25:59.719Z,0
2016-11-26T00:26:32.017Z,0
2016-11-26T00:27:04.371Z,0
2016-11-26T00:27:36.709Z,0
2016-11-26T00:28:09.036Z,0
2016-11-26T00:28:41.358Z,0
2016-11-26T00:29:13.674Z,0
2016-11-26T00:29:45.984Z,0
2016-11-26T00:30:18.306Z,0
2016-11-26T00:30:50.622Z,0
2016-11-26T00:31:22.949Z,0
2016-11-26T00:31:55.262Z,0
2016-11-26T00:32:27.593Z,0
2016-11-26T00:32:59.908Z,0
2016-11-26T00:33:32.241Z,0
2016-11-26T00:34:04.564Z,0
2016-11-26T00:34:36.897Z,0
2016-11-26T00:35:09.214Z,0
2016-11-26T00:35:41.557Z,0
2016-11-26T00:36:13.864Z,0
2016-11-26T00:36:46.183Z,0
2016-11-26T00:37:18.492Z,0
2016-11-26T00:37:50.815Z,0
2016-11-26T00:38:23.136Z,0
2016-11-26T00:38:55.454Z,0
2016-11-26T00:39:27.754Z,0
2016-11-26T00:40:00.118Z,0
2016-11-26T00:40:32.430Z,0
2016-11-26T00:41:04.754Z,0
2016-11-26T00:41:37.074Z,0
2016-11-26T00:42:09.424Z,0
2016-11-26T00:42:41.735Z,0
2016-11-26T00:43:14.037Z,0
2016-11-26T00:43:46.339Z,0
2016-11-26T00:44:18.658Z,0
2016-11-26T00:44:50.991Z,0
2016-11-26T00:45:23.333Z,0
2016-11-26T00:45:55.642Z,0
2016-11-26T00:46:27.967Z,0
2016-11-26T00:47:00.284Z,0
2016-11-26T00:47:32.611Z,0
2016-11-26T00:48:04.935Z,0
2016-11-26T00:48:37.235Z,0
2016-11-26T00:49:09.564Z,0
2016-11-26T00:49:41.899Z,0
2016-11-26T00:50:14.205Z,0
2016-11-26T00:50:46.525Z,0
2016-11-26T00:51:18.841Z,0
2016-11-26T00:51:51.166Z,0
2016-11-26T00:52:23.478Z,0
2016-11-26T00:52:55.802Z,0
2016-11-26T00:53:28.155Z,0
2016-11-26T00:54:00.481Z,0
2016-11-26T00:54:32.805Z,0
2016-11-26T00:55:05.111Z,0
2016-11-26T00:55:37.426Z,0
2016-11-26T00:56:09.732Z,0
2016-11-26T00:56:42.072Z,0
2016-11-26T00:57:14.376Z,0
2016-11-26T00:57:46.699Z,0
2016-11-26T00:58:19.028Z,0
2016-11-26T00:58:51.335Z,0
2016-11-26T00:59:23.670Z,0
2016-11-26T00:59:56.017Z,0
2016-11-26T01:00:28.337Z,0
2016-11-26T01:01:00.667Z,0
2016-11-26T01:01:32.968Z,0
2016-11-26T01:02:05.787Z,0
2016-11-26T01:02:38.133Z,0
2016-11-26T01:03:10.451Z,0
2016-11-26T01:03:42.771Z,0
2016-11-26T01:04:15.081Z,0
2016-11-26T01:04:47.387Z,0
2016-11-26T01:05:19.740Z,0
2016-11-26T01:05:52.069Z,0
2016-11-26T01:06:26.438Z,0
2016-11-26T01:06:59.856Z,0
2016-11-26T01:07:33.072Z,0
2016-11-26T01:08:06.361Z,0
2016-11-26T01:08:38.914Z,0
2016-11-26T01:09:11.227Z,0
2016-11-26T01:09:43.549Z,0
2016-11-26T01:10:15.871Z,0
2016-11-26T01:10:48.201Z,0
2016-11-26T01:11:20.519Z,0
2016-11-26T01:11:52.841Z,0
2016-11-26T01:12:25.170Z,0
2016-11-26T01:12:57.486Z,0
2016-11-26T01:13:29.793Z,0
2016-11-26T01:14:02.107Z,0
2016-11-26T01:14:34.435Z,0
2016-11-26T01:15:06.748Z,0
2016-11-26T01:15:39.061Z,0
2016-11-26T01:16:11.363Z,0
2016-11-26T01:16:43.682Z,0
2016-11-26T01:17:15.995Z,0
2016-11-26T01:17:48.304Z,0
2016-11-26T01:18:20.613Z,0
2016-11-26T01:18:52.935Z,0
2016-11-26T01:19:25.238Z,0
2016-11-26T01:19:57.562Z,0
2016-11-26T01:20:29.890Z,0
2016-11-26T01:21:02.200Z,0
2016-11-26T01:21:34.532Z,0
2016-11-26T01:22:06.853Z,0
2016-11-26T01:22:39.168Z,0
2016-11-26T01:23:11.519Z,0
2016-11-26T01:23:43.840Z,0
2016-11-26T01:24:16.163Z,0
2016-11-26T01:24:48.469Z,0
2016-11-26T01:25:20.785Z,0
2016-11-26T01:25:53.112Z,0
2016-11-26T01:26:25.428Z,0
2016-11-26T01:26:57.748Z,0
2016-11-26T01:27:30.094Z,0
2016-11-26T01:28:02.394Z,0
2016-11-26T01:28:34.707Z,0
2016-11-26T01:29:07.024Z,0
2016-11-26T01:29:39.314Z,0
2016-11-26T01:30:11.615Z,0
2016-11-26T01:30:43.927Z,0
2016-11-26T01:31:16.235Z,0
2016-11-26T01:31:48.550Z,0
2016-11-26T01:32:20.875Z,0
2016-11-26T01:32:53.999Z,0
2016-11-26T01:33:26.315Z,0
2016-11-26T01:33:58.637Z,0
2016-11-26T01:34:31.001Z,0
2016-11-26T01:35:03.321Z,0
2016-11-26T01:35:35.644Z,0
2016-11-26T01:36:07.950Z,0
2016-11-26T01:36:40.254Z,0
2016-11-26T01:37:12.557Z,0
2016-11-26T01:37:44.854Z,0
2016-11-26T01:38:17.181Z,0
2016-11-26T01:38:49.507Z,0
2016-11-26T01:39:21.834Z,0
2016-11-26T01:39:54.150Z,0
2016-11-26T01:40:26.459Z,0
2016-11-26T01:40:58.824Z,0
2016-11-26T01:41:31.140Z,0
2016-11-26T01:42:03.462Z,0
2016-11-26T01:42:35.795Z,0
2016-11-26T01:43:08.116Z,0
2016-11-26T01:43:40.434Z,0
2016-11-26T01:44:12.753Z,0
2016-11-26T01:44:45.072Z,0
2016-11-26T01:45:17.386Z,0
2016-11-26T01:45:49.710Z,0
2016-11-26T01:46:22.039Z,0
2016-11-26T01:46:54.353Z,0
2016-11-26T01:47:26.654Z,0
2016-11-26T01:47:58.976Z,0
2016-11-26T01:48:31.286Z,0
2016-11-26T01:49:03.590Z,0
2016-11-26T01:49:35.919Z,0
2016-11-26T01:50:08.244Z,0
2016-11-26T01:50:40.575Z,0
2016-11-26T01:51:12.895Z,0
2016-11-26T01:51:45.212Z,0
2016-11-26T01:52:17.538Z,0
2016-11-26T01:52:49.863Z,0
2016-11-26T01:53:22.169Z,0
2016-11-26T01:53:54.501Z,0
2016-11-26T01:54:26.819Z,0
2016-11-26T01:54:59.145Z,0
2016-11-26T01:55:31.456Z,0
2016-11-26T01:56:03.780Z,0
2016-11-26T01:56:36.102Z,0
2016-11-26T01:57:08.410Z,0
2016-11-26T01:57:40.720Z,0
2016-11-26T01:58:13.020Z,0
2016-11-26T01:58:45.335Z,0
2016-11-26T01:59:17.675Z,0
2016-11-26T01:59:49.989Z,0
2016-11-26T02:00:22.344Z,0
2016-11-26T02:00:54.659Z,0
2016-11-26T02:01:26.986Z,0
2016-11-26T02:01:59.319Z,0
2016-11-26T02:02:31.637Z,0
2016-11-26T02:03:03.974Z,0
2016-11-26T02:03:36.297Z,0
2016-11-26T02:04:08.617Z,0
2016-11-26T02:04:40.917Z,0
2016-11-26T02:05:13.232Z,0
2016-11-26T02:05:45.537Z,0
2016-11-26T02:06:17.829Z,0
2016-11-26T02:06:50.152Z,0
2016-11-26T02:07:22.451Z,0
2016-11-26T02:07:54.766Z,0
2016-11-26T02:08:27.088Z,0
2016-11-26T02:08:59.381Z,0
2016-11-26T02:09:31.700Z,0
2016-11-26T02:10:04.021Z,0
2016-11-26T02:10:36.342Z,0
2016-11-26T02:11:08.659Z,0
2016-11-26T02:11:40.974Z,0
2016-11-26T02:12:13.280Z,0
2016-11-26T02:12:45.596Z,0
2016-11-26T02:13:17.903Z,0
2016-11-26T02:13:50.230Z,0
2016-11-26T02:14:22.573Z,0
2016-11-26T02:14:54.888Z,0
2016-11-26T02:15:27.191Z,0
2016-11-26T02:15:59.509Z,0
2016-11-26T02:16:31.828Z,0
2016-11-26T02:17:04.164Z,0
2016-11-26T02:17:36.485Z,0
2016-11-26T02:18:08.803Z,0
2016-11-26T02:18:41.117Z,0
2016-11-26T02:19:13.435Z,0
2016-11-26T02:19:45.753Z,0
2016-11-26T02:20:18.070Z,0
2016-11-26T02:20:50.395Z,0
2016-11-26T02:21:22.706Z,0
2016-11-26T02:21:55.054Z,0
2016-11-26T02:22:27.391Z,0
2016-11-26T02:22:59.724Z,0
2016-11-26T02:23:32.045Z,0
2016-11-26T02:24:04.366Z,0
2016-11-26T02:24:36.694Z,0
2016-11-26T02:25:09.000Z,0
2016-11-26T02:25:41.312Z,0
2016-11-26T02:26:13.637Z,0
2016-11-26T02:26:45.944Z,0
2016-11-26T02:27:18.275Z,0
2016-11-26T02:27:50.575Z,0
2016-11-26T02:28:22.898Z,0
2016-11-26T02:28:55.214Z,0
2016-11-26T02:29:27.520Z,0
2016-11-26T02:29:59.844Z,0
2016-11-26T02:30:32.180Z,0
2016-11-26T02:31:04.499Z,0
2016-11-26T02:31:36.825Z,0
2016-11-26T02:32:09.166Z,0
2016-11-26T02:32:41.493Z,0
2016-11-26T02:33:13.820Z,0
2016-11-26T02:33:46.143Z,0
2016-11-26T02:34:18.487Z,0
2016-11-26T02:34:50.812Z,0
2016-11-26T02:35:23.120Z,0
2016-11-26T02:35:55.456Z,0
2016-11-26T02:36:27.782Z,0
2016-11-26T02:37:00.105Z,0
2016-11-26T02:37:32.419Z,0
2016-11-26T02:38:04.725Z,0
2016-11-26T02:38:37.068Z,0
2016-11-26T02:39:09.391Z,0
2016-11-26T02:39:41.706Z,0
2016-11-26T02:40:14.005Z,0
2016-11-26T02:40:46.322Z,0
2016-11-26T02:41:18.647Z,0
2016-11-26T02:41:50.970Z,0
2016-11-26T02:42:23.348Z,0
2016-11-26T02:42:55.671Z,0
2016-11-26T02:43:28.014Z,0
2016-11-26T02:44:00.311Z,0
2016-11-26T02:44:32.645Z,0
2016-11-26T02:45:04.967Z,0
2016-11-26T02:45:37.292Z,0
2016-11-26T02:46:09.632Z,0
2016-11-26T02:46:41.958Z,0
2016-11-26T02:47:14.269Z,0
2016-11-26T02:47:46.593Z,0
2016-11-26T02:48:18.923Z,0
2016-11-26T02:48:51.252Z,0
2016-11-26T02:49:23.564Z,0
2016-11-26T02:49:55.870Z,0
2016-11-26T02:50:28.196Z,0
2016-11-26T02:51:00.523Z,0
2016-11-26T02:51:32.831Z,0
2016-11-26T02:52:05.156Z,0
2016-11-26T02:52:37.461Z,0
2016-11-26T02:53:09.780Z,0
2016-11-26T02:53:42.082Z,0
2016-11-26T02:54:14.404Z,0
2016-11-26T02:54:46.735Z,0
2016-11-26T02:55:19.060Z,0
2016-11-26T02:55:51.380Z,0
2016-11-26T02:56:23.709Z,0
2016-11-26T02:56:56.031Z,0
2016-11-26T02:57:28.357Z,0
2016-11-26T02:58:00.706Z,0
2016-11-26T02:58:33.031Z,0
2016-11-26T02:59:05.425Z,0
2016-11-26T02:59:37.739Z,0
2016-11-26T03:00:10.055Z,0
2016-11-26T03:00:42.373Z,0
2016-11-26T03:01:14.708Z,0
2016-11-26T03:01:47.043Z,0
2016-11-26T03:02:19.386Z,0
2016-11-26T03:02:51.697Z,0
2016-11-26T03:03:24.019Z,0
2016-11-26T03:03:56.348Z,0
2016-11-26T03:04:28.661Z,0
2016-11-26T03:05:00.976Z,0
2016-11-26T03:05:33.299Z,0
2016-11-26T03:06:05.605Z,0
2016-11-26T03:06:37.941Z,0
2016-11-26T03:07:10.234Z,0
2016-11-26T03:07:42.533Z,0
2016-11-26T03:08:14.854Z,0
2016-11-26T03:08:47.169Z,0
2016-11-26T03:09:19.479Z,0
2016-11-26T03:09:51.788Z,0
2016-11-26T03:10:24.104Z,0
2016-11-26T03:10:56.423Z,0
2016-11-26T03:11:28.731Z,0
2016-11-26T03:12:01.051Z,0
2016-11-26T03:12:33.371Z,0
2016-11-26T03:13:05.702Z,0
2016-11-26T03:13:38.028Z,0
2016-11-26T03:14:10.343Z,0
2016-11-26T03:14:42.703Z,0
2016-11-26T03:15:15.027Z,0
2016-11-26T03:15:47.348Z,0
2016-11-26T03:16:19.715Z,0
2016-11-26T03:16:52.024Z,0
2016-11-26T03:17:24.324Z,0
2016-11-26T03:17:56.653Z,0
2016-11-26T03:18:28.980Z,0
2016-11-26T03:19:01.303Z,0
2016-11-26T03:19:33.685Z,0
2016-11-26T03:20:06.009Z,0
2016-11-26T03:20:38.359Z,0
2016-11-26T03:21:10.688Z,0
2016-11-26T03:21:42.992Z,0
2016-11-26T03:22:15.315Z,0
2016-11-26T03:22:47.627Z,0
2016-11-26T03:23:19.941Z,0
2016-11-26T03:23:52.253Z,0
2016-11-26T03:24:24.576Z,0
2016-11-26T03:24:56.894Z,0
2016-11-26T03:25:29.223Z,0
2016-11-26T03:26:01.543Z,0
2016-11-26T03:26:33.886Z,0
2016-11-26T03:27:06.201Z,0
2016-11-26T03:27:38.517Z,0
2016-11-26T03:28:10.841Z,0
2016-11-26T03:28:43.157Z,0
2016-11-26T03:29:15.505Z,0
2016-11-26T03:29:47.837Z,0
2016-11-26T03:30:20.156Z,0
2016-11-26T03:30:52.467Z,0
2016-11-26T03:31:24.810Z,0
2016-11-26T03:31:57.143Z,0
2016-11-26T03:32:29.492Z,0
2016-11-26T03:33:01.817Z,0
2016-11-26T03:33:34.168Z,0
2016-11-26T03:34:06.480Z,0
2016-11-26T03:34:38.801Z,0
2016-11-26T03:35:11.114Z,0
2016-11-26T03:35:43.437Z,0
2016-11-26T03:36:15.758Z,0
2016-11-26T03:36:48.077Z,0
2016-11-26T03:37:20.403Z,0
2016-11-26T03:37:52.820Z,0
2016-11-26T03:38:25.139Z,0
2016-11-26T03:38:57.451Z,0
2016-11-26T03:39:29.785Z,0
2016-11-26T03:40:02.091Z,0
2016-11-26T03:40:34.407Z,0
2016-11-26T03:41:06.725Z,0
2016-11-26T03:41:39.028Z,0
2016-11-26T03:42:11.355Z,0
2016-11-26T03:42:43.662Z,0
2016-11-26T03:43:15.967Z,0
2016-11-26T03:43:48.271Z,0
2016-11-26T03:44:20.569Z,0
2016-11-26T03:44:52.874Z,0
2016-11-26T03:45:25.192Z,0
2016-11-26T03:45:57.500Z,0
2016-11-26T03:46:29.842Z,0
2016-11-26T03:47:02.158Z,0
2016-11-26T03:47:34.469Z,0
2016-11-26T03:48:06.790Z,0
2016-11-26T03:48:39.111Z,0
2016-11-26T03:49:11.438Z,0
2016-11-26T03:49:43.759Z,0
2016-11-26T03:50:16.075Z,0
2016-11-26T03:50:48.391Z,0
2016-11-26T03:51:20.709Z,0
2016-11-26T03:51:53.022Z,0
2016-11-26T03:52:25.329Z,0
2016-11-26T03:52:57.667Z,0
2016-11-26T03:53:29.995Z,0
2016-11-26T03:54:02.315Z,0
2016-11-26T03:54:34.629Z,0
2016-11-26T03:55:06.947Z,0
2016-11-26T03:55:39.271Z,0
2016-11-26T03:56:11.585Z,0
2016-11-26T03:56:43.905Z,0
2016-11-26T03:57:16.236Z,0
2016-11-26T03:57:48.552Z,0
2016-11-26T03:58:20.876Z,0
2016-11-26T03:58:53.196Z,0
2016-11-26T03:59:25.537Z,0
2016-11-26T03:59:57.859Z,0
2016-11-26T04:00:30.166Z,0
2016-11-26T04:01:02.483Z,0
2016-11-26T04:01:34.795Z,0
2016-11-26T04:02:07.107Z,0
2016-11-26T04:02:39.427Z,0
2016-11-26T04:03:11.724Z,0
2016-11-26T04:03:44.055Z,0
2016-11-26T04:04:16.361Z,0
2016-11-26T04:04:48.674Z,0
2016-11-26T04:05:20.990Z,0
2016-11-26T04:05:53.344Z,0
2016-11-26T04:06:25.646Z,0
2016-11-26T04:06:57.953Z,0
2016-11-26T04:07:30.312Z,0
2016-11-26T04:08:02.617Z,0
2016-11-26T04:08:34.937Z,0
2016-11-26T04:09:07.255Z,0
2016-11-26T04:09:39.597Z,0
2016-11-26T04:10:11.908Z,0
2016-11-26T04:10:44.239Z,0
2016-11-26T04:11:16.545Z,0
2016-11-26T04:11:48.872Z,0
2016-11-26T04:12:21.199Z,0
2016-11-26T04:12:53.505Z,0
2016-11-26T04:13:25.819Z,0
2016-11-26T04:13:58.120Z,0
2016-11-26T04:14:30.434Z,0
2016-11-26T04:15:02.743Z,0
2016-11-26T04:15:35.054Z,0
2016-11-26T04:16:07.372Z,0
2016-11-26T04:16:39.677Z,0
2016-11-26T04:17:11.977Z,0
2016-11-26T04:17:44.279Z,0
2016-11-26T04:18:16.591Z,0
2016-11-26T04:18:48.903Z,0
2016-11-26T04:19:21.224Z,0
2016-11-26T04:19:53.545Z,0
2016-11-26T04:20:25.869Z,0
2016-11-26T04:20:58.204Z,0
2016-11-26T04:21:30.518Z,0
2016-11-26T04:22:02.822Z,0
2016-11-26T04:22:35.139Z,0
2016-11-26T04:23:07.455Z,0
2016-11-26T04:23:39.783Z,0
2016-11-26T04:24:12.104Z,0
2016-11-26T04:24:44.426Z,0
2016-11-26T04:25:16.730Z,0
2016-11-26T04:25:49.052Z,0
2016-11-26T04:26:21.383Z,0
2016-11-26T04:26:53.706Z,0
2016-11-26T04:27:26.026Z,0
2016-11-26T04:27:58.347Z,0
2016-11-26T04:28:30.645Z,0
2016-11-26T04:29:02.952Z,0
2016-11-26T04:29:35.264Z,0
2016-11-26T04:30:07.568Z,0
2016-11-26T04:30:39.878Z,0
2016-11-26T04:31:12.188Z,0
2016-11-26T04:31:44.502Z,0
2016-11-26T04:32:16.806Z,0
2016-11-26T04:32:49.105Z,0
2016-11-26T04:33:21.438Z,0
2016-11-26T04:33:53.755Z,0
2016-11-26T04:34:26.109Z,0
2016-11-26T04:34:58.434Z,0
2016-11-26T04:35:30.765Z,0
2016-11-26T04:36:03.107Z,0
2016-11-26T04:36:35.446Z,0
2016-11-26T04:37:07.744Z,0
2016-11-26T04:37:40.060Z,0
2016-11-26T04:38:12.375Z,0
2016-11-26T04:38:44.691Z,0
2016-11-26T04:39:17.014Z,0
2016-11-26T04:39:49.321Z,0
2016-11-26T04:40:21.621Z,0
2016-11-26T04:40:53.956Z,0
2016-11-26T04:41:26.314Z,0
2016-11-26T04:41:58.630Z,0
2016-11-26T04:42:30.939Z,0
2016-11-26T04:43:03.265Z,0
2016-11-26T04:43:35.597Z,0
2016-11-26T04:44:07.920Z,0
2016-11-26T04:44:40.229Z,0
2016-11-26T04:45:12.530Z,0
2016-11-26T04:45:44.886Z,0
2016-11-26T04:46:17.199Z,0
2016-11-26T04:46:49.523Z,0
2016-11-26T04:47:21.858Z,0
2016-11-26T04:47:54.164Z,0
2016-11-26T04:48:26.477Z,0
2016-11-26T04:48:58.797Z,0
2016-11-26T04:49:31.098Z,0
2016-11-26T04:50:03.411Z,0
2016-11-26T04:50:35.725Z,0
2016-11-26T04:51:08.059Z,0
2016-11-26T04:51:40.381Z,0
2016-11-26T04:52:12.679Z,0
2016-11-26T04:52:45.001Z,0
2016-11-26T04:53:17.305Z,0
2016-11-26T04:53:49.605Z,0
2016-11-26T04:54:21.936Z,0
2016-11-26T04:54:54.256Z,0
2016-11-26T04:55:26.574Z,0
2016-11-26T04:55:58.894Z,0
2016-11-26T04:56:31.219Z,0
2016-11-26T04:57:03.539Z,0
2016-11-26T04:57:35.844Z,0
2016-11-26T04:58:08.176Z,0
2016-11-26T04:58:40.484Z,0
2016-11-26T04:59:12.792Z,0
2016-11-26T04:59:45.111Z,0
2016-11-26T05:00:17.427Z,0
2016-11-26T05:00:49.734Z,0
2016-11-26T05:01:22.049Z,0
2016-11-26T05:01:54.377Z,0
2016-11-26T05:02:26.681Z,0
2016-11-26T05:02:58.998Z,0
2016-11-26T05:03:31.313Z,0
2016-11-26T05:04:03.639Z,0
2016-11-26T05:04:35.973Z,0
2016-11-26T05:05:08.301Z,0
2016-11-26T05:05:40.615Z,0
2016-11-26T05:06:12.967Z,0
2016-11-26T05:06:45.332Z,0
2016-11-26T05:07:17.681Z,0
2016-11-26T05:07:50.010Z,0
2016-11-26T05:08:22.325Z,0
2016-11-26T05:08:54.633Z,0
2016-11-26T05:09:26.964Z,0
2016-11-26T05:09:59.275Z,0
2016-11-26T05:10:31.586Z,0
2016-11-26T05:11:03.888Z,0
2016-11-26T05:11:36.201Z,0
2016-11-26T05:12:08.517Z,0
2016-11-26T05:12:40.837Z,0
2016-11-26T05:13:13.157Z,0
2016-11-26T05:13:45.482Z,0
2016-11-26T05:14:17.813Z,0
2016-11-26T05:14:50.136Z,0
2016-11-26T05:15:22.481Z,0
2016-11-26T05:15:54.836Z,0
2016-11-26T05:16:27.146Z,0
2016-11-26T05:16:59.519Z,0
2016-11-26T05:17:31.844Z,0
2016-11-26T05:18:04.177Z,0
2016-11-26T05:18:36.496Z,0
2016-11-26T05:19:08.815Z,0
2016-11-26T05:19:41.127Z,0
2016-11-26T05:20:13.481Z,0
2016-11-26T05:20:45.807Z,0
2016-11-26T05:21:18.141Z,0
2016-11-26T05:21:50.477Z,0
2016-11-26T05:22:22.803Z,0
2016-11-26T05:22:55.120Z,0
2016-11-26T05:23:27.433Z,0
2016-11-26T05:23:59.733Z,0
2016-11-26T05:24:32.067Z,0
2016-11-26T05:25:04.393Z,0
2016-11-26T05:25:36.708Z,0
2016-11-26T05:26:09.024Z,0
2016-11-26T05:26:41.345Z,0
2016-11-26T05:27:13.678Z,0
2016-11-26T05:27:45.996Z,0
2016-11-26T05:28:18.301Z,0
2016-11-26T05:28:50.613Z,0
2016-11-26T05:29:22.917Z,0
2016-11-26T05:29:55.245Z,0
2016-11-26T05:30:27.555Z,0
2016-11-26T05:30:59.898Z,0
2016-11-26T05:31:32.218Z,0
2016-11-26T05:32:04.514Z,0
2016-11-26T05:32:36.833Z,0
2016-11-26T05:33:09.120Z,0
2016-11-26T05:33:41.418Z,0
2016-11-26T05:34:13.733Z,0
2016-11-26T05:34:46.070Z,0
2016-11-26T05:35:18.391Z,0
2016-11-26T05:35:50.728Z,0
2016-11-26T05:36:23.050Z,0
2016-11-26T05:36:55.354Z,0
2016-11-26T05:37:27.682Z,0
2016-11-26T05:38:00.007Z,0
2016-11-26T05:38:32.327Z,0
2016-11-26T05:39:04.679Z,0
2016-11-26T05:39:36.995Z,0
2016-11-26T05:40:09.297Z,0
2016-11-26T05:40:41.615Z,0
2016-11-26T05:41:13.935Z,0
2016-11-26T05:41:46.256Z,0
2016-11-26T05:42:18.551Z,0
2016-11-26T05:42:50.865Z,0
2016-11-26T05:43:23.181Z,0
2016-11-26T05:43:55.534Z,0
2016-11-26T05:44:27.844Z,0
2016-11-26T05:45:00.173Z,0
2016-11-26T05:45:32.506Z,0
2016-11-26T05:46:04.839Z,0
2016-11-26T05:46:37.158Z,0
2016-11-26T05:47:09.482Z,0
2016-11-26T05:47:41.810Z,0
2016-11-26T05:48:14.121Z,0
2016-11-26T05:48:46.470Z,0
2016-11-26T05:49:18.795Z,0
2016-11-26T05:49:51.130Z,0
2016-11-26T05:50:23.446Z,0
2016-11-26T05:50:55.802Z,0
2016-11-26T05:51:28.124Z,0
2016-11-26T05:52:00.450Z,0
2016-11-26T05:52:32.777Z,0
2016-11-26T05:53:05.083Z,0
2016-11-26T05:53:37.415Z,0
2016-11-26T05:54:09.756Z,0
2016-11-26T05:54:42.085Z,0
2016-11-26T05:55:14.391Z,0
2016-11-26T05:55:46.697Z,0
2016-11-26T05:56:19.008Z,0
2016-11-26T05:56:51.340Z,0
2016-11-26T05:57:23.657Z,0
2016-11-26T05:57:55.975Z,0
2016-11-26T05:58:28.310Z,0
2016-11-26T05:59:00.636Z,0
2016-11-26T05:59:32.964Z,0
2016-11-26T06:00:05.262Z,0
2016-11-26T06:00:37.565Z,0
2016-11-26T06:01:09.878Z,0
2016-11-26T06:01:42.199Z,0
2016-11-26T06:02:14.515Z,0
2016-11-26T06:02:46.827Z,0
2016-11-26T06:03:19.167Z,0
2016-11-26T06:03:51.488Z,0
2016-11-26T06:04:23.795Z,0
2016-11-26T06:04:56.106Z,0
2016-11-26T06:05:28.445Z,0
2016-11-26T06:06:00.762Z,0
2016-11-26T06:06:33.088Z,0
2016-11-26T06:07:05.402Z,0
2016-11-26T06:07:37.728Z,0
2016-11-26T06:08:10.054Z,0
2016-11-26T06:08:42.408Z,0
2016-11-26T06:09:14.718Z,0
2016-11-26T06:09:47.030Z,0
2016-11-26T06:10:19.332Z,0
2016-11-26T06:10:51.630Z,0
2016-11-26T06:11:23.943Z,0
2016-11-26T06:11:56.262Z,0
2016-11-26T06:12:28.590Z,0
2016-11-26T06:13:00.905Z,0
2016-11-26T06:13:33.209Z,0
2016-11-26T06:14:05.517Z,0
2016-11-26T06:14:37.820Z,0
2016-11-26T06:15:10.126Z,0
2016-11-26T06:15:42.453Z,0
2016-11-26T06:16:14.773Z,0
2016-11-26T06:16:47.101Z,0
2016-11-26T06:17:19.411Z,0
2016-11-26T06:17:51.729Z,0
2016-11-26T06:18:24.044Z,0
2016-11-26T06:18:56.390Z,0
2016-11-26T06:19:28.722Z,0
2016-11-26T06:20:01.088Z,0
2016-11-26T06:20:33.395Z,0
2016-11-26T06:21:05.702Z,0
2016-11-26T06:21:38.017Z,0
2016-11-26T06:22:10.354Z,0
2016-11-26T06:22:42.681Z,0
2016-11-26T06:23:14.982Z,0
2016-11-26T06:23:47.311Z,0
2016-11-26T06:24:19.619Z,0
2016-11-26T06:24:51.942Z,0
2016-11-26T06:25:24.268Z,0
2016-11-26T06:25:56.567Z,0
2016-11-26T06:26:28.885Z,0
2016-11-26T06:27:01.273Z,0
2016-11-26T06:27:33.583Z,0
2016-11-26T06:28:05.904Z,0
2016-11-26T06:28:38.217Z,0
2016-11-26T06:29:10.523Z,0
2016-11-26T06:29:42.840Z,0
2016-11-26T06:30:15.173Z,0
2016-11-26T06:30:47.488Z,0
2016-11-26T06:31:19.796Z,0
2016-11-26T06:31:52.119Z,0
2016-11-26T06:32:24.474Z,0
2016-11-26T06:32:56.800Z,0
2016-11-26T06:33:29.114Z,0
2016-11-26T06:34:01.431Z,0
2016-11-26T06:34:33.732Z,0
2016-11-26T06:35:06.060Z,0
2016-11-26T06:35:38.378Z,0
2016-11-26T06:36:10.707Z,0
2016-11-26T06:36:43.028Z,0
2016-11-26T06:37:15.338Z,0
2016-11-26T06:37:47.640Z,0
2016-11-26T06:38:19.975Z,0
2016-11-26T06:38:52.300Z,0
2016-11-26T06:39:24.626Z,0
2016-11-26T06:39:56.954Z,0
2016-11-26T06:40:29.259Z,0
2016-11-26T06:41:01.577Z,4
2016-11-26T06:41:33.892Z,4
2016-11-26T06:42:06.211Z,4
2016-11-26T06:42:38.527Z,0
2016-11-26T06:43:10.851Z,0
2016-11-26T06:43:43.170Z,0
2016-11-26T06:44:15.487Z,4
2016-11-26T06:44:47.813Z,4
2016-11-26T06:45:20.146Z,0
2016-11-26T06:45:52.466Z,0
2016-11-26T06:46:24.801Z,4
2016-11-26T06:46:57.105Z,4
2016-11-26T06:47:29.429Z,4
2016-11-26T06:48:01.760Z,0
2016-11-26T06:48:34.108Z,4
2016-11-26T06:49:06.419Z,4
2016-11-26T06:49:38.728Z,4
2016-11-26T06:50:11.039Z,8
2016-11-26T06:50:43.369Z,4
2016-11-26T06:51:15.695Z,4
2016-11-26T06:51:48.009Z,4
2016-11-26T06:52:20.317Z,8
2016-11-26T06:52:52.641Z,8
2016-11-26T06:53:24.971Z,4
2016-11-26T06:53:57.281Z,8
2016-11-26T06:54:29.607Z,8
2016-11-26T06:55:01.930Z,8
2016-11-26T06:55:34.242Z,8
2016-11-26T06:56:06.553Z,12
2016-11-26T06:56:38.890Z,12
2016-11-26T06:57:11.210Z,12
2016-11-26T06:57:43.526Z,12
2016-11-26T06:58:15.851Z,12
2016-11-26T06:58:48.170Z,12
2016-11-26T06:59:20.473Z,16
2016-11-26T06:59:52.787Z,16
2016-11-26T07:00:25.112Z,12
2016-11-26T07:00:57.422Z,16
2016-11-26T07:01:29.725Z,16
2016-11-26T07:02:02.054Z,20
2016-11-26T07:02:34.371Z,16
2016-11-26T07:03:06.688Z,20
2016-11-26T07:03:39.009Z,20
2016-11-26T07:04:11.344Z,20
2016-11-26T07:04:43.656Z,20
2016-11-26T07:05:15.981Z,20
2016-11-26T07:05:48.295Z,24
2016-11-26T07:06:20.603Z,24
2016-11-26T07:06:52.916Z,24
2016-11-26T07:07:25.233Z,28
2016-11-26T07:07:57.551Z,28
2016-11-26T07:08:29.896Z,28
2016-11-26T07:09:02.235Z,28
2016-11-26T07:09:34.559Z,32
2016-11-26T07:10:06.870Z,32
2016-11-26T07:10:39.177Z,32
2016-11-26T07:11:11.500Z,32
2016-11-26T07:11:43.827Z,36
2016-11-26T07:12:16.148Z,36
2016-11-26T07:12:48.464Z,36
2016-11-26T07:13:20.779Z,36
2016-11-26T07:13:53.128Z,40
2016-11-26T07:14:25.450Z,44
2016-11-26T07:14:57.758Z,40
2016-11-26T07:15:30.073Z,44
2016-11-26T07:16:02.377Z,48
2016-11-26T07:16:34.727Z,44
2016-11-26T07:17:07.031Z,48
2016-11-26T07:17:39.346Z,48
2016-11-26T07:18:11.662Z,52
2016-11-26T07:18:43.965Z,52
2016-11-26T07:19:16.265Z,56
2016-11-26T07:19:48.586Z,56
2016-11-26T07:20:20.912Z,60
2016-11-26T07:20:53.230Z,60
2016-11-26T07:21:25.554Z,60
2016-11-26T07:21:57.882Z,60
2016-11-26T07:22:30.243Z,64
2016-11-26T07:23:02.577Z,68
2016-11-26T07:23:34.878Z,72
2016-11-26T07:24:07.185Z,72
2016-11-26T07:24:39.494Z,76
2016-11-26T07:25:11.826Z,76
2016-11-26T07:25:44.131Z,76
2016-11-26T07:26:16.463Z,84
2016-11-26T07:26:48.775Z,84
2016-11-26T07:27:21.125Z,88
2016-11-26T07:27:53.431Z,88
2016-11-26T07:28:25.743Z,88
2016-11-26T07:28:58.075Z,92
2016-11-26T07:29:30.407Z,96
2016-11-26T07:30:02.713Z,100
2016-11-26T07:30:35.031Z,100
2016-11-26T07:31:07.342Z,104
2016-11-26T07:31:39.655Z,104
2016-11-26T07:32:11.984Z,108
2016-11-26T07:32:44.303Z,112
2016-11-26T07:33:16.624Z,112
2016-11-26T07:33:48.963Z,116
2016-11-26T07:34:21.282Z,120
2016-11-26T07:34:53.600Z,124
2016-11-26T07:35:25.912Z,124
2016-11-26T07:35:58.225Z,132
2016-11-26T07:36:30.551Z,132
2016-11-26T07:37:02.867Z,132
2016-11-26T07:37:35.201Z,132
2016-11-26T07:38:07.526Z,124
2016-11-26T07:38:39.856Z,120
2016-11-26T07:39:12.183Z,116
2016-11-26T07:39:44.506Z,116
2016-11-26T07:40:16.827Z,116
2016-11-26T07:40:49.167Z,112
2016-11-26T07:41:21.491Z,116
2016-11-26T07:41:53.800Z,112
2016-11-26T07:42:26.099Z,112
2016-11-26T07:42:58.453Z,116
2016-11-26T07:43:30.773Z,116
2016-11-26T07:44:03.099Z,120
2016-11-26T07:44:35.425Z,124
2016-11-26T07:45:07.724Z,128
2016-11-26T07:45:40.043Z,136
2016-11-26T07:46:12.358Z,140
2016-11-26T07:46:44.676Z,148
2016-11-26T07:47:16.973Z,152
2016-11-26T07:47:49.304Z,160
2016-11-26T07:48:21.616Z,156
2016-11-26T07:48:53.917Z,156
2016-11-26T07:49:26.213Z,156
2016-11-26T07:49:58.529Z,156
2016-11-26T07:50:30.849Z,160
2016-11-26T07:51:03.153Z,168
2016-11-26T07:51:35.463Z,176
2016-11-26T07:52:07.765Z,180
2016-11-26T07:52:40.093Z,180
2016-11-26T07:53:12.414Z,180
2016-11-26T07:53:44.725Z,176
2016-11-26T07:54:17.055Z,176
2016-11-26T07:54:49.344Z,176